createdAt,value
2022-09-18T00:01:31.356Z,60.68
2022-09-18T00:04:01.784Z,60.46
2022-09-18T00:06:32.864Z,60.42
2022-09-18T00:09:01.825Z,60.30
2022-09-18T00:11:35.152Z,60.14
2022-09-18T00:14:03.078Z,60.30
2022-09-18T00:16:30.000Z,60.47
2022-09-18T00:18:57.044Z,60.36
2022-09-18T00:21:25.423Z,60.13
2022-09-18T00:23:56.494Z,60.00
2022-09-18T00:26:25.811Z,60.12
2022-09-18T00:28:54.217Z,59.88
2022-09-18T00:31:30.090Z,59.81
2022-09-18T00:33:59.951Z,60.01
2022-09-18T00:36:27.713Z,60.03
2022-09-18T00:38:55.869Z,59.95
2022-09-18T00:41:27.139Z,59.98
2022-09-18T00:44:16.568Z,60.15
2022-09-18T00:46:46.095Z,60.21
2022-09-18T00:49:32.023Z,60.67
2022-09-18T00:52:01.714Z,60.39
2022-09-18T00:54:36.872Z,60.39
2022-09-18T00:57:10.296Z,60.38
2022-09-18T00:59:38.972Z,60.55
2022-09-18T01:02:06.371Z,60.59
2022-09-18T01:04:33.339Z,60.68
2022-09-18T01:07:43.789Z,60.75
2022-09-18T01:10:30.271Z,60.75
2022-09-18T01:13:02.855Z,61.13
2022-09-18T01:15:45.668Z,60.63
2022-09-18T01:18:33.262Z,60.53
2022-09-18T01:21:14.179Z,60.88
2022-09-18T01:24:03.514Z,60.65
2022-09-18T01:26:55.087Z,60.66
2022-09-18T01:29:45.488Z,60.54
2022-09-18T01:32:33.619Z,60.70
2022-09-18T01:35:39.591Z,60.26
2022-09-18T01:38:26.727Z,60.42
2022-09-18T01:41:01.820Z,60.58
2022-09-18T01:43:30.963Z,60.65
2022-09-18T01:46:05.771Z,60.56
2022-09-18T01:48:55.554Z,60.42
2022-09-18T01:51:43.296Z,60.57
2022-09-18T01:54:17.888Z,60.79
2022-09-18T01:57:11.849Z,60.80
2022-09-18T01:59:53.764Z,60.94
2022-09-18T02:02:44.896Z,61.10
2022-09-18T02:05:19.459Z,61.32
2022-09-18T02:08:01.840Z,61.36
2022-09-18T02:10:31.465Z,61.50
2022-09-18T02:13:01.181Z,61.60
2022-09-18T02:15:32.152Z,61.66
2022-09-18T02:18:08.897Z,61.82
2022-09-18T02:20:41.568Z,61.95
2022-09-18T02:23:10.235Z,61.93
2022-09-18T02:25:51.462Z,62.19
2022-09-18T02:28:22.910Z,62.15
2022-09-18T02:30:49.854Z,62.41
2022-09-18T02:33:31.304Z,62.52
2022-09-18T02:36:50.559Z,62.89
2022-09-18T02:39:27.437Z,63.36
2022-09-18T02:42:40.345Z,63.59
2022-09-18T02:45:47.969Z,63.84
2022-09-18T02:48:38.579Z,64.04
2022-09-18T02:51:27.517Z,64.23
2022-09-18T02:54:07.159Z,64.39
2022-09-18T02:56:46.016Z,64.52
2022-09-18T02:59:28.133Z,64.67
2022-09-18T03:01:58.867Z,64.86
2022-09-18T03:04:27.998Z,64.99
2022-09-18T03:07:00.460Z,65.30
2022-09-18T03:09:27.531Z,65.38
2022-09-18T03:11:55.855Z,65.27
2022-09-18T03:14:22.775Z,65.27
2022-09-18T03:16:49.668Z,65.50
2022-09-18T03:19:17.417Z,65.44
2022-09-18T03:21:44.487Z,65.82
2022-09-18T03:24:12.367Z,65.61
2022-09-18T03:26:42.568Z,65.56
2022-09-18T03:29:11.387Z,65.78
2022-09-18T03:31:41.290Z,65.82
2022-09-18T03:34:09.300Z,65.76
2022-09-18T03:36:38.242Z,65.78
2022-09-18T03:39:05.769Z,65.45
2022-09-18T03:41:33.543Z,65.41
2022-09-18T03:44:00.722Z,65.44
2022-09-18T03:46:29.568Z,65.25
2022-09-18T03:48:59.265Z,65.36
2022-09-18T03:51:28.817Z,65.42
2022-09-18T03:53:55.706Z,65.17
2022-09-18T03:56:41.256Z,64.91
2022-09-18T03:59:24.563Z,64.69
2022-09-18T04:02:02.096Z,64.53
2022-09-18T04:04:29.663Z,64.39
2022-09-18T04:07:14.749Z,64.35
2022-09-18T04:10:09.041Z,64.11
2022-09-18T04:12:38.215Z,63.92
2022-09-18T04:15:23.448Z,63.95
2022-09-18T04:17:50.469Z,63.77
2022-09-18T04:20:17.377Z,63.76
2022-09-18T04:22:44.484Z,63.66
2022-09-18T04:25:11.407Z,63.81
2022-09-18T04:27:39.235Z,63.68
2022-09-18T04:30:06.804Z,63.76
2022-09-18T04:32:35.430Z,63.79
2022-09-18T04:35:02.984Z,63.71
2022-09-18T04:37:29.989Z,63.52
2022-09-18T04:39:57.594Z,63.65
2022-09-18T04:42:24.526Z,63.67
2022-09-18T04:44:51.724Z,63.85
2022-09-18T04:47:18.666Z,63.75
2022-09-18T04:49:46.022Z,63.68
2022-09-18T04:52:12.907Z,63.93
2022-09-18T04:54:39.862Z,63.79
2022-09-18T04:57:08.355Z,64.07
2022-09-18T04:59:36.235Z,63.84
2022-09-18T05:02:03.159Z,64.18
2022-09-18T05:04:30.204Z,64.05
2022-09-18T05:07:20.105Z,64.44
2022-09-18T05:09:47.029Z,64.42
2022-09-18T05:12:13.917Z,64.41
2022-09-18T05:14:41.319Z,64.70
2022-09-18T05:17:10.722Z,64.72
2022-09-18T05:19:39.540Z,64.73
2022-09-18T05:22:14.582Z,64.94
2022-09-18T05:24:46.632Z,64.43
2022-09-18T05:27:14.150Z,64.82
2022-09-18T05:29:41.063Z,64.97
2022-09-18T05:32:13.153Z,64.78
2022-09-18T05:34:40.497Z,64.96
2022-09-18T05:37:07.403Z,64.85
2022-09-18T05:39:34.272Z,65.18
2022-09-18T05:42:02.285Z,64.90
2022-09-18T05:44:29.381Z,64.78
2022-09-18T05:46:57.147Z,65.06
2022-09-18T05:49:24.115Z,65.05
2022-09-18T05:51:51.144Z,65.23
2022-09-18T05:54:20.789Z,65.41
2022-09-18T05:56:49.318Z,65.59
2022-09-18T05:59:16.565Z,65.90
2022-09-18T06:01:47.497Z,65.60
2022-09-18T06:04:25.794Z,65.74
2022-09-18T06:06:58.907Z,65.47
2022-09-18T06:09:26.366Z,65.22
2022-09-18T06:11:53.497Z,65.05
2022-09-18T06:14:20.390Z,65.02
2022-09-18T06:16:48.097Z,64.88
2022-09-18T06:19:14.999Z,65.19
2022-09-18T06:21:44.721Z,65.10
2022-09-18T06:24:15.400Z,65.10
2022-09-18T06:26:49.972Z,64.82
2022-09-18T06:29:16.877Z,64.79
2022-09-18T06:31:51.725Z,64.81
2022-09-18T06:34:21.899Z,65.02
2022-09-18T06:36:49.328Z,65.03
2022-09-18T06:39:27.685Z,64.75
2022-09-18T06:42:00.300Z,64.85
2022-09-18T06:44:45.533Z,64.74
2022-09-18T06:47:12.657Z,64.74
2022-09-18T06:49:43.818Z,64.24
2022-09-18T06:52:10.721Z,64.15
2022-09-18T06:54:38.870Z,64.05
2022-09-18T06:57:07.908Z,64.04
2022-09-18T06:59:34.807Z,63.85
2022-09-18T07:02:01.857Z,63.73
2022-09-18T07:04:47.696Z,63.21
2022-09-18T07:07:17.061Z,63.41
2022-09-18T07:09:46.815Z,63.27
2022-09-18T07:12:46.766Z,62.95
2022-09-18T07:15:17.707Z,62.99
2022-09-18T07:17:45.324Z,62.53
2022-09-18T07:20:15.513Z,62.44
2022-09-18T07:22:47.386Z,62.36
2022-09-18T07:25:15.249Z,62.22
2022-09-18T07:27:43.639Z,61.75
2022-09-18T07:30:12.266Z,61.50
2022-09-18T07:32:39.186Z,60.81
2022-09-18T07:35:13.332Z,61.16
2022-09-18T07:37:40.509Z,61.08
2022-09-18T07:40:15.655Z,60.98
2022-09-18T07:43:04.960Z,60.51
2022-09-18T07:45:33.092Z,60.21
2022-09-18T07:48:07.644Z,59.92
2022-09-18T07:50:40.556Z,59.63
2022-09-18T07:53:08.971Z,59.29
2022-09-18T07:55:38.881Z,59.05
2022-09-18T07:58:07.306Z,58.60
2022-09-18T08:01:02.690Z,58.38
2022-09-18T08:03:31.216Z,58.64
2022-09-18T08:06:26.704Z,58.61
2022-09-18T08:09:22.659Z,58.26
2022-09-18T08:12:03.776Z,58.33
2022-09-18T08:14:51.482Z,58.22
2022-09-18T08:17:48.219Z,57.75
2022-09-18T08:20:35.524Z,57.38
2022-09-18T08:23:15.249Z,57.69
2022-09-18T08:25:43.325Z,57.46
2022-09-18T08:28:10.305Z,56.62
2022-09-18T08:30:50.117Z,56.75
2022-09-18T08:33:18.016Z,55.64
2022-09-18T08:35:45.041Z,55.77
2022-09-18T08:38:21.113Z,55.67
2022-09-18T08:41:49.727Z,55.60
2022-09-18T08:44:29.358Z,55.82
2022-09-18T08:47:06.857Z,55.77
2022-09-18T08:49:43.123Z,55.85
2022-09-18T08:52:20.834Z,56.38
2022-09-18T08:55:06.387Z,56.74
2022-09-18T08:57:52.921Z,55.16
2022-09-18T09:00:42.104Z,55.25
2022-09-18T09:04:32.780Z,54.46
2022-09-18T09:07:51.830Z,53.49
2022-09-18T09:10:42.317Z,53.83
2022-09-18T09:13:54.473Z,53.94
2022-09-18T09:16:47.397Z,53.42
2022-09-18T09:19:37.454Z,53.53
2022-09-18T09:22:17.234Z,53.51
2022-09-18T09:24:55.504Z,52.95
2022-09-18T09:27:59.088Z,51.51
2022-09-18T09:31:00.236Z,51.58
2022-09-18T09:33:59.182Z,50.97
2022-09-18T09:36:49.726Z,51.21
2022-09-18T09:39:45.312Z,51.78
2022-09-18T09:42:31.306Z,51.15
2022-09-18T09:45:13.187Z,51.09
2022-09-18T09:47:52.383Z,51.24
2022-09-18T09:50:48.168Z,51.27
2022-09-18T09:53:16.014Z,51.55
2022-09-18T09:56:29.059Z,51.21
2022-09-18T09:59:21.636Z,50.91
2022-09-18T10:02:32.500Z,50.44
2022-09-18T10:05:45.367Z,50.31
2022-09-18T10:08:26.895Z,50.44
2022-09-18T10:10:59.442Z,49.63
2022-09-18T10:13:37.677Z,49.42
2022-09-18T10:16:16.154Z,48.12
2022-09-18T10:18:46.975Z,48.61
2022-09-18T10:21:23.491Z,48.48
2022-09-18T10:24:44.386Z,48.48
2022-09-18T10:27:14.349Z,48.77
2022-09-18T10:29:43.027Z,49.52
2022-09-18T10:32:43.724Z,49.07
2022-09-18T10:35:42.268Z,47.53
2022-09-18T10:38:30.538Z,47.54
2022-09-18T10:41:30.594Z,47.02
2022-09-18T10:44:22.696Z,45.63
2022-09-18T10:47:21.981Z,46.94
2022-09-18T10:50:02.124Z,45.39
2022-09-18T10:52:47.257Z,45.25
2022-09-18T10:55:29.578Z,45.64
2022-09-18T10:58:03.984Z,44.26
2022-09-18T11:00:39.512Z,43.51
2022-09-18T11:03:34.821Z,43.29
2022-09-18T11:06:23.889Z,43.64
2022-09-18T11:08:56.167Z,43.78
2022-09-18T11:11:37.539Z,44.00
2022-09-18T11:14:25.422Z,43.36
2022-09-18T11:17:33.860Z,43.64
2022-09-18T11:20:05.403Z,43.40
2022-09-18T11:22:45.025Z,42.49
2022-09-18T11:25:26.482Z,43.04
2022-09-18T11:28:00.968Z,42.37
2022-09-18T11:30:36.398Z,42.92
2022-09-18T11:33:26.265Z,43.60
2022-09-18T11:36:04.117Z,42.61
2022-09-18T11:38:32.853Z,42.40
2022-09-18T11:41:02.917Z,42.23
2022-09-18T11:43:38.731Z,42.12
2022-09-18T11:46:59.965Z,42.09
2022-09-18T11:49:36.367Z,42.23
2022-09-18T11:52:19.067Z,41.38
2022-09-18T11:55:15.342Z,42.57
2022-09-18T11:58:01.344Z,42.79
2022-09-18T12:00:36.180Z,42.66
2022-09-18T12:03:37.682Z,41.76
2022-09-18T12:06:27.637Z,41.26
2022-09-18T12:09:08.530Z,41.69
2022-09-18T12:12:09.345Z,42.04
2022-09-18T12:15:04.090Z,42.63
2022-09-18T12:17:51.083Z,43.55
2022-09-18T12:20:30.923Z,43.69
2022-09-18T12:23:00.624Z,43.79
2022-09-18T12:26:03.584Z,43.77
2022-09-18T12:28:58.108Z,42.38
2022-09-18T12:31:33.004Z,42.09
2022-09-18T12:34:27.889Z,41.83
2022-09-18T12:37:30.512Z,42.18
2022-09-18T12:40:41.631Z,42.68
2022-09-18T12:43:49.499Z,43.60
2022-09-18T12:46:35.611Z,43.68
2022-09-18T12:49:45.874Z,44.33
2022-09-18T12:53:06.614Z,44.45
2022-09-18T12:56:06.017Z,44.76
2022-09-18T12:59:03.864Z,44.81
2022-09-18T13:01:51.969Z,45.07
2022-09-18T13:04:33.637Z,45.54
2022-09-18T13:07:11.976Z,45.47
2022-09-18T13:09:57.972Z,45.82
2022-09-18T13:12:34.850Z,46.21
2022-09-18T13:15:28.344Z,46.25
2022-09-18T13:18:16.537Z,46.30
2022-09-18T13:20:45.663Z,46.48
2022-09-18T13:23:22.644Z,46.79
2022-09-18T13:25:51.746Z,46.50
2022-09-18T13:28:21.472Z,47.47
2022-09-18T13:31:25.038Z,46.99
2022-09-18T13:34:23.887Z,47.24
2022-09-18T13:36:50.815Z,47.03
2022-09-18T13:39:28.744Z,46.00
2022-09-18T13:41:59.287Z,45.36
2022-09-18T13:44:33.005Z,45.73
2022-09-18T13:47:14.033Z,45.00
2022-09-18T13:49:55.810Z,45.10
2022-09-18T13:52:42.419Z,45.18
2022-09-18T13:55:16.272Z,44.74
2022-09-18T13:57:44.540Z,45.11
2022-09-18T14:00:20.552Z,44.55
2022-09-18T14:02:51.975Z,45.43
2022-09-18T14:05:38.511Z,45.38
2022-09-18T14:08:38.140Z,45.08
2022-09-18T14:11:17.320Z,45.06
2022-09-18T14:13:55.283Z,45.68
2022-09-18T14:16:23.038Z,45.11
2022-09-18T14:18:49.789Z,45.23
2022-09-18T14:21:19.363Z,45.61
2022-09-18T14:23:46.119Z,45.68
2022-09-18T14:26:31.365Z,45.96
2022-09-18T14:29:06.378Z,45.68
2022-09-18T14:31:45.230Z,46.18
2022-09-18T14:34:33.717Z,45.95
2022-09-18T14:37:19.029Z,45.55
2022-09-18T14:39:46.421Z,45.71
2022-09-18T14:42:33.415Z,45.79
2022-09-18T14:45:12.444Z,45.89
2022-09-18T14:47:41.945Z,46.06
2022-09-18T14:50:41.719Z,45.70
2022-09-18T14:53:25.912Z,46.03
2022-09-18T14:56:04.128Z,45.82
2022-09-18T14:58:36.724Z,46.07
2022-09-18T15:01:08.442Z,45.28
2022-09-18T15:03:44.667Z,44.78
2022-09-18T15:06:39.784Z,45.32
2022-09-18T15:09:10.211Z,45.46
2022-09-18T15:11:58.845Z,45.76
2022-09-18T15:14:44.003Z,45.96
2022-09-18T15:17:25.820Z,46.76
2022-09-18T15:19:58.667Z,46.52
2022-09-18T15:22:26.613Z,47.29
2022-09-18T15:24:53.511Z,47.65
2022-09-18T15:27:21.871Z,47.92
2022-09-18T15:30:05.657Z,48.30
2022-09-18T15:32:38.709Z,48.19
2022-09-18T15:35:08.772Z,48.90
2022-09-18T15:37:38.359Z,48.70
2022-09-18T15:40:20.422Z,48.94
2022-09-18T15:43:01.869Z,49.49
2022-09-18T15:45:32.374Z,49.35
2022-09-18T15:48:03.101Z,49.64
2022-09-18T15:50:37.592Z,49.25
2022-09-18T15:53:13.962Z,49.01
2022-09-18T15:55:57.356Z,49.32
2022-09-18T15:58:37.086Z,49.63
2022-09-18T16:01:06.828Z,49.78
2022-09-18T16:03:34.383Z,49.56
2022-09-18T16:06:04.960Z,49.47
2022-09-18T16:08:36.743Z,49.53
2022-09-18T16:11:05.188Z,49.52
2022-09-18T16:13:39.533Z,49.63
2022-09-18T16:16:11.309Z,49.75
2022-09-18T16:19:13.259Z,49.82
2022-09-18T16:21:43.849Z,49.95
2022-09-18T16:24:29.911Z,50.12
2022-09-18T16:27:07.009Z,50.29
2022-09-18T16:29:34.576Z,50.11
2022-09-18T16:32:01.622Z,50.43
2022-09-18T16:34:29.060Z,50.54
2022-09-18T16:36:56.373Z,50.62
2022-09-18T16:39:26.019Z,50.38
2022-09-18T16:41:53.160Z,50.32
2022-09-18T16:44:20.091Z,50.26
2022-09-18T16:47:09.857Z,50.50
2022-09-18T16:49:42.570Z,50.76
2022-09-18T16:52:11.207Z,50.92
2022-09-18T16:54:38.192Z,50.66
2022-09-18T16:57:18.215Z,50.70
2022-09-18T16:59:45.426Z,51.01
2022-09-18T17:02:17.156Z,50.81
2022-09-18T17:04:44.141Z,50.90
2022-09-18T17:07:11.018Z,50.93
2022-09-18T17:09:37.947Z,51.33
2022-09-18T17:12:05.000Z,51.19
2022-09-18T17:14:31.896Z,51.24
2022-09-18T17:16:58.838Z,51.50
2022-09-18T17:19:25.807Z,51.21
2022-09-18T17:21:53.244Z,51.24
2022-09-18T17:24:25.519Z,51.44
2022-09-18T17:26:53.880Z,51.39
2022-09-18T17:29:21.283Z,51.63
2022-09-18T17:31:48.219Z,51.79
2022-09-18T17:34:16.595Z,51.65
2022-09-18T17:36:43.892Z,51.91
2022-09-18T17:39:11.785Z,51.92
2022-09-18T17:41:39.051Z,51.87
2022-09-18T17:44:06.331Z,51.87
2022-09-18T17:46:33.231Z,52.03
2022-09-18T17:49:00.786Z,52.14
2022-09-18T17:51:29.128Z,52.20
2022-09-18T17:54:04.759Z,52.33
2022-09-18T17:56:33.575Z,52.19
2022-09-18T17:59:05.734Z,52.56
2022-09-18T18:01:37.436Z,52.39
2022-09-18T18:04:06.168Z,52.65
2022-09-18T18:06:34.071Z,52.87
2022-09-18T18:09:01.080Z,52.94
2022-09-18T18:11:29.560Z,53.14
2022-09-18T18:13:56.527Z,53.21
2022-09-18T18:16:27.437Z,53.14
2022-09-18T18:19:04.648Z,53.19
2022-09-18T18:21:33.646Z,53.32
2022-09-18T18:24:05.375Z,53.50
2022-09-18T18:26:32.393Z,53.70
2022-09-18T18:28:59.288Z,53.75
2022-09-18T18:31:26.780Z,53.77
2022-09-18T18:33:55.672Z,53.84
2022-09-18T18:36:27.039Z,54.26
2022-09-18T18:38:57.691Z,53.99
2022-09-18T18:41:28.716Z,54.32
2022-09-18T18:43:57.855Z,54.26
2022-09-18T18:46:27.263Z,54.40
2022-09-18T18:49:02.836Z,54.44
2022-09-18T18:51:51.803Z,54.55
2022-09-18T18:54:21.517Z,54.59
2022-09-18T18:56:49.801Z,54.59
2022-09-18T18:59:18.898Z,54.76
2022-09-18T19:01:47.233Z,54.86
2022-09-18T19:04:19.136Z,55.01
2022-09-18T19:06:46.620Z,54.98
2022-09-18T19:09:25.955Z,55.01
2022-09-18T19:11:53.840Z,55.14
2022-09-18T19:14:25.098Z,55.15
2022-09-18T19:16:53.368Z,55.22
2022-09-18T19:19:24.312Z,55.26
2022-09-18T19:21:52.008Z,55.32
2022-09-18T19:24:19.735Z,55.47
2022-09-18T19:26:47.959Z,55.29
2022-09-18T19:29:18.064Z,55.67
2022-09-18T19:31:47.059Z,55.53
2022-09-18T19:34:18.248Z,55.90
2022-09-18T19:36:47.174Z,55.89
2022-09-18T19:39:14.166Z,56.00
2022-09-18T19:41:49.815Z,56.03
2022-09-18T19:44:37.558Z,56.17
2022-09-18T19:47:46.306Z,56.28
2022-09-18T19:50:23.304Z,56.11
2022-09-18T19:52:51.499Z,56.02
2022-09-18T19:55:20.758Z,56.22
2022-09-18T19:57:54.507Z,56.30
2022-09-18T20:00:21.407Z,56.30
2022-09-18T20:02:48.302Z,56.27
2022-09-18T20:05:15.684Z,56.41
2022-09-18T20:07:43.038Z,56.52
2022-09-18T20:10:13.959Z,56.54
2022-09-18T20:12:42.728Z,56.63
2022-09-18T20:15:11.271Z,56.74
2022-09-18T20:17:38.766Z,56.66
2022-09-18T20:20:08.794Z,56.25
2022-09-18T20:22:39.699Z,56.58
2022-09-18T20:25:08.090Z,56.73
2022-09-18T20:27:40.909Z,56.88
2022-09-18T20:30:12.464Z,56.86
2022-09-18T20:32:39.810Z,56.88
2022-09-18T20:35:07.077Z,56.85
2022-09-18T20:37:33.960Z,57.08
2022-09-18T20:40:02.489Z,57.16
2022-09-18T20:42:34.509Z,57.09
2022-09-18T20:45:02.460Z,57.15
2022-09-18T20:47:38.602Z,57.44
2022-09-18T20:50:12.520Z,57.92
2022-09-18T20:52:43.070Z,57.51
2022-09-18T20:55:13.539Z,57.83
2022-09-18T20:57:41.322Z,57.95
2022-09-18T21:00:10.991Z,57.62
2022-09-18T21:02:38.136Z,57.78
2022-09-18T21:05:13.541Z,57.66
2022-09-18T21:07:44.715Z,57.59
2022-09-18T21:10:12.950Z,57.92
2022-09-18T21:12:39.995Z,57.78
2022-09-18T21:15:12.872Z,57.48
2022-09-18T21:17:40.227Z,57.65
2022-09-18T21:20:07.514Z,57.67
2022-09-18T21:22:54.667Z,57.74
2022-09-18T21:25:22.232Z,57.75
2022-09-18T21:27:49.602Z,57.73
2022-09-18T21:30:16.467Z,57.86
2022-09-18T21:32:43.348Z,57.95
2022-09-18T21:35:10.209Z,57.91
2022-09-18T21:37:37.086Z,58.28
2022-09-18T21:40:04.227Z,58.02
2022-09-18T21:42:31.184Z,57.96
2022-09-18T21:45:03.119Z,58.01
2022-09-18T21:47:30.197Z,58.03
2022-09-18T21:49:57.203Z,58.14
2022-09-18T21:52:24.320Z,57.93
2022-09-18T21:54:51.173Z,58.11
2022-09-18T21:57:18.215Z,58.14
2022-09-18T21:59:45.071Z,58.11
2022-09-18T22:02:13.655Z,58.00
2022-09-18T22:04:43.968Z,58.31
2022-09-18T22:07:11.556Z,58.19
2022-09-18T22:09:38.452Z,58.21
2022-09-18T22:12:08.146Z,58.13
2022-09-18T22:14:38.188Z,58.30
2022-09-18T22:17:07.825Z,58.08
2022-09-18T22:19:39.226Z,58.28
2022-09-18T22:22:08.224Z,58.29
2022-09-18T22:24:35.078Z,58.13
2022-09-18T22:27:10.208Z,58.61
2022-09-18T22:29:39.306Z,58.65
2022-09-18T22:32:06.883Z,58.44
2022-09-18T22:34:37.271Z,58.58
2022-09-18T22:37:04.768Z,58.65
2022-09-18T22:39:31.659Z,58.62
2022-09-18T22:41:58.931Z,58.99
2022-09-18T22:44:25.854Z,58.83
2022-09-18T22:46:53.783Z,59.14
2022-09-18T22:49:22.807Z,59.23
2022-09-18T22:51:50.568Z,59.52
2022-09-18T22:54:23.544Z,59.25
2022-09-18T22:56:52.148Z,59.65
2022-09-18T22:59:21.811Z,59.46
2022-09-18T23:01:59.756Z,59.50
2022-09-18T23:04:29.218Z,59.46
2022-09-18T23:06:57.354Z,59.76
2022-09-18T23:09:24.315Z,59.33
2022-09-18T23:11:53.133Z,59.63
2022-09-18T23:14:25.860Z,59.52
2022-09-18T23:16:52.821Z,59.70
2022-09-18T23:19:29.890Z,59.47
2022-09-18T23:21:57.210Z,59.73
2022-09-18T23:24:24.936Z,59.43
2022-09-18T23:26:54.034Z,59.79
2022-09-18T23:29:23.290Z,59.73
2022-09-18T23:31:53.090Z,59.63
2022-09-18T23:34:23.958Z,59.70
2022-09-18T23:36:54.087Z,59.46
2022-09-18T23:39:24.457Z,59.93
2022-09-18T23:41:52.148Z,59.89
2022-09-18T23:44:21.263Z,59.57
2022-09-18T23:46:49.293Z,59.77
2022-09-18T23:49:23.064Z,59.88
2022-09-18T23:51:53.104Z,60.21
2022-09-18T23:54:27.176Z,60.04
2022-09-18T23:56:54.338Z,60.28
2022-09-18T23:59:23.551Z,60.22
